sensor_id;sensor_type;location;lat;lon;timestamp;P1;durP1;ratioP1;P2;durP2;ratioP2
73697;SDS011;62004;42.566;23.164;2023-05-15T00:00:26;8.27;;;5.07;;
73697;SDS011;62004;42.566;23.164;2023-05-15T00:02:51;9.55;;;5.55;;
73697;SDS011;62004;42.566;23.164;2023-05-15T00:05:17;7.40;;;4.97;;
73697;SDS011;62004;42.566;23.164;2023-05-15T00:07:42;9.93;;;4.55;;
73697;SDS011;62004;42.566;23.164;2023-05-15T00:10:07;8.80;;;5.43;;
73697;SDS011;62004;42.566;23.164;2023-05-15T00:12:33;5.80;;;4.60;;
73697;SDS011;62004;42.566;23.164;2023-05-15T00:14:58;7.80;;;4.97;;
73697;SDS011;62004;42.566;23.164;2023-05-15T00:17:24;7.03;;;3.00;;
73697;SDS011;62004;42.566;23.164;2023-05-15T00:19:49;11.25;;;5.25;;
73697;SDS011;62004;42.566;23.164;2023-05-15T00:22:14;8.30;;;4.72;;
73697;SDS011;62004;42.566;23.164;2023-05-15T00:24:40;7.07;;;4.43;;
73697;SDS011;62004;42.566;23.164;2023-05-15T00:27:05;7.55;;;4.72;;
73697;SDS011;62004;42.566;23.164;2023-05-15T00:29:31;6.57;;;4.83;;
73697;SDS011;62004;42.566;23.164;2023-05-15T00:31:56;7.30;;;4.90;;
73697;SDS011;62004;42.566;23.164;2023-05-15T00:34:21;6.23;;;5.07;;
73697;SDS011;62004;42.566;23.164;2023-05-15T00:36:47;12.25;;;5.72;;
73697;SDS011;62004;42.566;23.164;2023-05-15T00:39:12;8.18;;;4.65;;
73697;SDS011;62004;42.566;23.164;2023-05-15T00:41:37;5.20;;;4.60;;
73697;SDS011;62004;42.566;23.164;2023-05-15T00:44:04;5.97;;;5.38;;
73697;SDS011;62004;42.566;23.164;2023-05-15T00:46:31;6.93;;;4.35;;
73697;SDS011;62004;42.566;23.164;2023-05-15T00:48:56;7.57;;;5.07;;
73697;SDS011;62004;42.566;23.164;2023-05-15T00:51:22;6.88;;;5.65;;
73697;SDS011;62004;42.566;23.164;2023-05-15T00:53:48;8.45;;;5.13;;
73697;SDS011;62004;42.566;23.164;2023-05-15T00:56:14;5.30;;;4.57;;
73697;SDS011;62004;42.566;23.164;2023-05-15T00:58:40;8.13;;;5.20;;
73697;SDS011;62004;42.566;23.164;2023-05-15T01:01:06;5.90;;;4.90;;
73697;SDS011;62004;42.566;23.164;2023-05-15T01:03:31;9.68;;;5.78;;
73697;SDS011;62004;42.566;23.164;2023-05-15T01:05:57;11.20;;;5.63;;
73697;SDS011;62004;42.566;23.164;2023-05-15T01:08:24;11.43;;;5.83;;
73697;SDS011;62004;42.566;23.164;2023-05-15T01:10:50;6.82;;;3.92;;
73697;SDS011;62004;42.566;23.164;2023-05-15T01:13:15;6.65;;;5.10;;
73697;SDS011;62004;42.566;23.164;2023-05-15T01:15:43;7.78;;;5.03;;
73697;SDS011;62004;42.566;23.164;2023-05-15T01:18:08;7.87;;;4.73;;
73697;SDS011;62004;42.566;23.164;2023-05-15T01:20:38;5.90;;;4.47;;
73697;SDS011;62004;42.566;23.164;2023-05-15T01:23:10;11.38;;;4.25;;
73697;SDS011;62004;42.566;23.164;2023-05-15T01:28:23;8.13;;;4.72;;
73697;SDS011;62004;42.566;23.164;2023-05-15T01:30:49;14.30;;;4.65;;
73697;SDS011;62004;42.566;23.164;2023-05-15T01:33:37;10.02;;;4.88;;
73697;SDS011;62004;42.566;23.164;2023-05-15T01:36:08;13.43;;;5.20;;
73697;SDS011;62004;42.566;23.164;2023-05-15T01:38:37;9.52;;;4.50;;
73697;SDS011;62004;42.566;23.164;2023-05-15T01:43:41;10.02;;;6.35;;
73697;SDS011;62004;42.566;23.164;2023-05-15T01:46:06;7.97;;;5.63;;
73697;SDS011;62004;42.566;23.164;2023-05-15T01:48:32;14.07;;;6.18;;
73697;SDS011;62004;42.566;23.164;2023-05-15T01:50:59;8.13;;;5.97;;
73697;SDS011;62004;42.566;23.164;2023-05-15T01:53:25;13.70;;;6.57;;
73697;SDS011;62004;42.566;23.164;2023-05-15T01:55:51;9.90;;;7.65;;
73697;SDS011;62004;42.566;23.164;2023-05-15T01:58:17;16.55;;;8.73;;
73697;SDS011;62004;42.566;23.164;2023-05-15T02:00:42;14.07;;;10.02;;
73697;SDS011;62004;42.566;23.164;2023-05-15T02:03:08;17.92;;;9.85;;
73697;SDS011;62004;42.566;23.164;2023-05-15T02:05:34;17.83;;;11.00;;
73697;SDS011;62004;42.566;23.164;2023-05-15T02:08:00;16.98;;;11.60;;
73697;SDS011;62004;42.566;23.164;2023-05-15T02:10:26;17.08;;;11.18;;
73697;SDS011;62004;42.566;23.164;2023-05-15T02:12:51;15.55;;;11.50;;
73697;SDS011;62004;42.566;23.164;2023-05-15T02:15:17;15.35;;;11.07;;
73697;SDS011;62004;42.566;23.164;2023-05-15T02:17:44;13.73;;;10.75;;
73697;SDS011;62004;42.566;23.164;2023-05-15T02:20:10;17.88;;;11.77;;
73697;SDS011;62004;42.566;23.164;2023-05-15T02:22:35;15.63;;;12.07;;
73697;SDS011;62004;42.566;23.164;2023-05-15T02:25:01;15.80;;;11.70;;
73697;SDS011;62004;42.566;23.164;2023-05-15T02:27:26;20.10;;;11.25;;
73697;SDS011;62004;42.566;23.164;2023-05-15T02:34:59;16.40;;;12.25;;
73697;SDS011;62004;42.566;23.164;2023-05-15T02:37:27;15.68;;;11.15;;
73697;SDS011;62004;42.566;23.164;2023-05-15T02:39:55;12.05;;;8.40;;
73697;SDS011;62004;42.566;23.164;2023-05-15T02:42:22;13.70;;;8.70;;
73697;SDS011;62004;42.566;23.164;2023-05-15T02:44:47;13.20;;;9.73;;
73697;SDS011;62004;42.566;23.164;2023-05-15T02:47:13;11.57;;;8.18;;
73697;SDS011;62004;42.566;23.164;2023-05-15T02:49:38;12.38;;;7.35;;
73697;SDS011;62004;42.566;23.164;2023-05-15T02:52:04;10.85;;;6.97;;
73697;SDS011;62004;42.566;23.164;2023-05-15T02:54:30;9.02;;;6.28;;
73697;SDS011;62004;42.566;23.164;2023-05-15T02:56:55;8.33;;;6.40;;
73697;SDS011;62004;42.566;23.164;2023-05-15T02:59:20;7.88;;;4.88;;
73697;SDS011;62004;42.566;23.164;2023-05-15T03:01:46;9.65;;;6.22;;
73697;SDS011;62004;42.566;23.164;2023-05-15T03:04:14;9.43;;;7.50;;
73697;SDS011;62004;42.566;23.164;2023-05-15T03:06:39;9.55;;;7.45;;
73697;SDS011;62004;42.566;23.164;2023-05-15T03:09:04;8.80;;;7.90;;
73697;SDS011;62004;42.566;23.164;2023-05-15T03:11:30;10.07;;;8.38;;
73697;SDS011;62004;42.566;23.164;2023-05-15T03:13:55;8.80;;;7.88;;
73697;SDS011;62004;42.566;23.164;2023-05-15T03:16:20;9.57;;;7.95;;
73697;SDS011;62004;42.566;23.164;2023-05-15T03:18:46;15.93;;;7.70;;
73697;SDS011;62004;42.566;23.164;2023-05-15T03:21:11;9.10;;;6.83;;
73697;SDS011;62004;42.566;23.164;2023-05-15T03:23:36;9.18;;;7.22;;
73697;SDS011;62004;42.566;23.164;2023-05-15T03:26:02;10.90;;;6.47;;
73697;SDS011;62004;42.566;23.164;2023-05-15T03:28:27;7.20;;;6.03;;
73697;SDS011;62004;42.566;23.164;2023-05-15T03:30:52;10.67;;;6.83;;
73697;SDS011;62004;42.566;23.164;2023-05-15T03:33:17;8.20;;;7.40;;
73697;SDS011;62004;42.566;23.164;2023-05-15T03:35:43;9.77;;;6.77;;
73697;SDS011;62004;42.566;23.164;2023-05-15T03:38:08;9.00;;;6.18;;
73697;SDS011;62004;42.566;23.164;2023-05-15T03:40:34;10.15;;;6.93;;
73697;SDS011;62004;42.566;23.164;2023-05-15T03:42:59;12.03;;;5.30;;
73697;SDS011;62004;42.566;23.164;2023-05-15T03:45:24;8.27;;;7.00;;
73697;SDS011;62004;42.566;23.164;2023-05-15T03:47:49;8.33;;;6.30;;
73697;SDS011;62004;42.566;23.164;2023-05-15T03:50:15;10.27;;;4.53;;
73697;SDS011;62004;42.566;23.164;2023-05-15T03:52:40;8.13;;;6.38;;
73697;SDS011;62004;42.566;23.164;2023-05-15T03:55:05;10.23;;;5.10;;
73697;SDS011;62004;42.566;23.164;2023-05-15T03:57:31;7.00;;;4.93;;
73697;SDS011;62004;42.566;23.164;2023-05-15T03:59:57;9.90;;;4.47;;
73697;SDS011;62004;42.566;23.164;2023-05-15T04:02:22;9.00;;;3.83;;
73697;SDS011;62004;42.566;23.164;2023-05-15T04:04:47;10.50;;;5.67;;
73697;SDS011;62004;42.566;23.164;2023-05-15T04:07:13;8.53;;;4.07;;
73697;SDS011;62004;42.566;23.164;2023-05-15T04:09:38;8.27;;;5.10;;
73697;SDS011;62004;42.566;23.164;2023-05-15T04:12:03;8.23;;;4.83;;
73697;SDS011;62004;42.566;23.164;2023-05-15T04:14:29;6.72;;;4.45;;
73697;SDS011;62004;42.566;23.164;2023-05-15T04:16:54;7.55;;;4.40;;
73697;SDS011;62004;42.566;23.164;2023-05-15T04:19:19;8.57;;;5.05;;
73697;SDS011;62004;42.566;23.164;2023-05-15T04:21:44;9.97;;;4.87;;
73697;SDS011;62004;42.566;23.164;2023-05-15T04:24:10;10.23;;;3.93;;
73697;SDS011;62004;42.566;23.164;2023-05-15T04:26:35;7.83;;;4.43;;
73697;SDS011;62004;42.566;23.164;2023-05-15T04:29:00;6.68;;;4.80;;
73697;SDS011;62004;42.566;23.164;2023-05-15T04:31:26;10.65;;;4.68;;
73697;SDS011;62004;42.566;23.164;2023-05-15T04:33:51;6.27;;;4.27;;
73697;SDS011;62004;42.566;23.164;2023-05-15T04:36:16;4.83;;;3.80;;
73697;SDS011;62004;42.566;23.164;2023-05-15T04:38:42;7.93;;;4.87;;
73697;SDS011;62004;42.566;23.164;2023-05-15T04:41:07;5.33;;;3.83;;
73697;SDS011;62004;42.566;23.164;2023-05-15T04:43:32;8.73;;;5.20;;
73697;SDS011;62004;42.566;23.164;2023-05-15T04:45:57;5.57;;;4.63;;
73697;SDS011;62004;42.566;23.164;2023-05-15T04:48:23;6.90;;;6.07;;
73697;SDS011;62004;42.566;23.164;2023-05-15T04:50:48;7.67;;;5.57;;
73697;SDS011;62004;42.566;23.164;2023-05-15T04:53:13;9.67;;;4.77;;
73697;SDS011;62004;42.566;23.164;2023-05-15T04:55:38;12.07;;;5.57;;
73697;SDS011;62004;42.566;23.164;2023-05-15T04:58:04;8.73;;;4.60;;
73697;SDS011;62004;42.566;23.164;2023-05-15T05:00:29;10.60;;;4.80;;
73697;SDS011;62004;42.566;23.164;2023-05-15T05:02:55;5.93;;;4.57;;
73697;SDS011;62004;42.566;23.164;2023-05-15T05:05:20;9.25;;;5.70;;
73697;SDS011;62004;42.566;23.164;2023-05-15T05:07:45;9.27;;;5.97;;
73697;SDS011;62004;42.566;23.164;2023-05-15T05:10:11;6.60;;;5.03;;
73697;SDS011;62004;42.566;23.164;2023-05-15T05:12:36;6.97;;;4.00;;
73697;SDS011;62004;42.566;23.164;2023-05-15T05:15:01;6.60;;;4.93;;
73697;SDS011;62004;42.566;23.164;2023-05-15T05:17:28;7.07;;;4.25;;
73697;SDS011;62004;42.566;23.164;2023-05-15T05:19:53;7.13;;;5.15;;
73697;SDS011;62004;42.566;23.164;2023-05-15T05:22:18;7.80;;;5.60;;
73697;SDS011;62004;42.566;23.164;2023-05-15T05:24:44;10.27;;;5.43;;
73697;SDS011;62004;42.566;23.164;2023-05-15T05:27:09;8.70;;;5.60;;
73697;SDS011;62004;42.566;23.164;2023-05-15T05:29:34;7.15;;;5.20;;
73697;SDS011;62004;42.566;23.164;2023-05-15T05:32:00;7.93;;;5.37;;
73697;SDS011;62004;42.566;23.164;2023-05-15T05:34:25;7.63;;;5.93;;
73697;SDS011;62004;42.566;23.164;2023-05-15T05:36:50;11.23;;;4.73;;
73697;SDS011;62004;42.566;23.164;2023-05-15T05:39:16;10.77;;;6.67;;
73697;SDS011;62004;42.566;23.164;2023-05-15T05:41:41;6.72;;;5.07;;
73697;SDS011;62004;42.566;23.164;2023-05-15T05:44:07;10.43;;;5.40;;
73697;SDS011;62004;42.566;23.164;2023-05-15T05:46:32;6.80;;;5.37;;
73697;SDS011;62004;42.566;23.164;2023-05-15T05:48:57;11.77;;;5.80;;
73697;SDS011;62004;42.566;23.164;2023-05-15T05:51:23;8.00;;;5.93;;
73697;SDS011;62004;42.566;23.164;2023-05-15T05:53:48;7.55;;;5.15;;
73697;SDS011;62004;42.566;23.164;2023-05-15T05:56:13;5.90;;;4.38;;
73697;SDS011;62004;42.566;23.164;2023-05-15T05:58:39;6.07;;;5.07;;
73697;SDS011;62004;42.566;23.164;2023-05-15T06:01:04;9.10;;;5.17;;
73697;SDS011;62004;42.566;23.164;2023-05-15T06:03:29;10.27;;;5.57;;
73697;SDS011;62004;42.566;23.164;2023-05-15T06:05:55;9.95;;;4.57;;
73697;SDS011;62004;42.566;23.164;2023-05-15T06:08:21;6.75;;;3.92;;
73697;SDS011;62004;42.566;23.164;2023-05-15T06:10:46;7.43;;;3.80;;
73697;SDS011;62004;42.566;23.164;2023-05-15T06:13:12;6.18;;;3.38;;
73697;SDS011;62004;42.566;23.164;2023-05-15T06:15:38;7.57;;;4.13;;
73697;SDS011;62004;42.566;23.164;2023-05-15T06:18:04;8.20;;;4.18;;
73697;SDS011;62004;42.566;23.164;2023-05-15T06:20:30;6.75;;;4.05;;
73697;SDS011;62004;42.566;23.164;2023-05-15T06:22:55;10.50;;;3.30;;
73697;SDS011;62004;42.566;23.164;2023-05-15T06:25:20;6.77;;;3.77;;
73697;SDS011;62004;42.566;23.164;2023-05-15T06:27:46;6.20;;;3.50;;
73697;SDS011;62004;42.566;23.164;2023-05-15T06:30:11;7.28;;;3.63;;
73697;SDS011;62004;42.566;23.164;2023-05-15T06:32:37;5.53;;;3.38;;
73697;SDS011;62004;42.566;23.164;2023-05-15T06:35:02;4.60;;;2.53;;
73697;SDS011;62004;42.566;23.164;2023-05-15T06:37:28;7.68;;;3.60;;
73697;SDS011;62004;42.566;23.164;2023-05-15T06:39:53;7.75;;;2.90;;
73697;SDS011;62004;42.566;23.164;2023-05-15T06:42:20;5.28;;;3.25;;
73697;SDS011;62004;42.566;23.164;2023-05-15T06:44:45;8.00;;;3.73;;
73697;SDS011;62004;42.566;23.164;2023-05-15T06:47:11;9.60;;;3.13;;
73697;SDS011;62004;42.566;23.164;2023-05-15T06:49:36;6.82;;;3.15;;
73697;SDS011;62004;42.566;23.164;2023-05-15T06:52:02;5.40;;;3.17;;
73697;SDS011;62004;42.566;23.164;2023-05-15T06:54:27;7.57;;;3.88;;
73697;SDS011;62004;42.566;23.164;2023-05-15T06:56:52;6.40;;;3.97;;
73697;SDS011;62004;42.566;23.164;2023-05-15T06:59:17;8.43;;;3.97;;
73697;SDS011;62004;42.566;23.164;2023-05-15T07:01:43;5.10;;;3.53;;
73697;SDS011;62004;42.566;23.164;2023-05-15T07:04:08;10.60;;;3.47;;
73697;SDS011;62004;42.566;23.164;2023-05-15T07:06:33;9.60;;;3.60;;
73697;SDS011;62004;42.566;23.164;2023-05-15T07:08:59;7.68;;;4.85;;
73697;SDS011;62004;42.566;23.164;2023-05-15T07:11:24;5.97;;;3.45;;
73697;SDS011;62004;42.566;23.164;2023-05-15T07:13:50;6.43;;;3.60;;
73697;SDS011;62004;42.566;23.164;2023-05-15T07:16:15;6.43;;;3.78;;
73697;SDS011;62004;42.566;23.164;2023-05-15T07:18:41;15.93;;;4.13;;
73697;SDS011;62004;42.566;23.164;2023-05-15T07:21:06;8.47;;;4.23;;
73697;SDS011;62004;42.566;23.164;2023-05-15T07:23:31;7.20;;;4.27;;
73697;SDS011;62004;42.566;23.164;2023-05-15T07:25:56;5.40;;;3.33;;
73697;SDS011;62004;42.566;23.164;2023-05-15T07:28:21;8.57;;;4.20;;
73697;SDS011;62004;42.566;23.164;2023-05-15T07:30:47;9.60;;;4.00;;
73697;SDS011;62004;42.566;23.164;2023-05-15T07:33:12;10.93;;;5.13;;
73697;SDS011;62004;42.566;23.164;2023-05-15T07:35:37;7.53;;;4.33;;
73697;SDS011;62004;42.566;23.164;2023-05-15T07:38:02;9.00;;;4.37;;
73697;SDS011;62004;42.566;23.164;2023-05-15T07:40:28;7.97;;;4.40;;
73697;SDS011;62004;42.566;23.164;2023-05-15T07:42:53;5.93;;;3.90;;
73697;SDS011;62004;42.566;23.164;2023-05-15T07:45:18;6.90;;;3.83;;
73697;SDS011;62004;42.566;23.164;2023-05-15T07:47:44;11.40;;;3.50;;
73697;SDS011;62004;42.566;23.164;2023-05-15T07:50:10;11.15;;;5.18;;
73697;SDS011;62004;42.566;23.164;2023-05-15T07:52:35;7.63;;;5.13;;
73697;SDS011;62004;42.566;23.164;2023-05-15T07:55:00;9.50;;;5.27;;
73697;SDS011;62004;42.566;23.164;2023-05-15T07:57:26;10.67;;;5.83;;
73697;SDS011;62004;42.566;23.164;2023-05-15T07:59:51;8.37;;;6.07;;
73697;SDS011;62004;42.566;23.164;2023-05-15T08:02:16;10.23;;;5.23;;
73697;SDS011;62004;42.566;23.164;2023-05-15T08:04:41;9.35;;;5.35;;
73697;SDS011;62004;42.566;23.164;2023-05-15T08:07:07;9.00;;;6.30;;
73697;SDS011;62004;42.566;23.164;2023-05-15T08:09:32;11.27;;;5.73;;
73697;SDS011;62004;42.566;23.164;2023-05-15T08:12:13;9.90;;;6.28;;
73697;SDS011;62004;42.566;23.164;2023-05-15T08:14:39;7.07;;;5.28;;
73697;SDS011;62004;42.566;23.164;2023-05-15T08:17:04;8.17;;;5.57;;
73697;SDS011;62004;42.566;23.164;2023-05-15T08:19:29;7.88;;;5.45;;
73697;SDS011;62004;42.566;23.164;2023-05-15T08:21:55;9.33;;;5.00;;
73697;SDS011;62004;42.566;23.164;2023-05-15T08:24:20;10.20;;;6.00;;
73697;SDS011;62004;42.566;23.164;2023-05-15T08:26:45;9.63;;;6.75;;
73697;SDS011;62004;42.566;23.164;2023-05-15T08:29:10;9.70;;;5.90;;
73697;SDS011;62004;42.566;23.164;2023-05-15T08:31:35;7.97;;;6.07;;
73697;SDS011;62004;42.566;23.164;2023-05-15T08:34:01;9.97;;;6.07;;
73697;SDS011;62004;42.566;23.164;2023-05-15T08:36:26;7.50;;;5.30;;
73697;SDS011;62004;42.566;23.164;2023-05-15T08:38:51;9.00;;;5.40;;
73697;SDS011;62004;42.566;23.164;2023-05-15T08:41:39;7.10;;;5.67;;
73697;SDS011;62004;42.566;23.164;2023-05-15T08:44:02;8.10;;;6.28;;
73697;SDS011;62004;42.566;23.164;2023-05-15T08:46:29;9.90;;;5.20;;
73697;SDS011;62004;42.566;23.164;2023-05-15T08:48:55;9.05;;;5.45;;
73697;SDS011;62004;42.566;23.164;2023-05-15T08:51:21;9.43;;;6.93;;
73697;SDS011;62004;42.566;23.164;2023-05-15T08:53:47;9.77;;;7.43;;
73697;SDS011;62004;42.566;23.164;2023-05-15T08:56:12;11.75;;;7.20;;
73697;SDS011;62004;42.566;23.164;2023-05-15T08:58:38;10.60;;;6.93;;
73697;SDS011;62004;42.566;23.164;2023-05-15T09:01:03;11.70;;;5.68;;
73697;SDS011;62004;42.566;23.164;2023-05-15T09:03:29;13.23;;;6.95;;
73697;SDS011;62004;42.566;23.164;2023-05-15T09:05:55;14.07;;;7.85;;
73697;SDS011;62004;42.566;23.164;2023-05-15T09:08:21;10.73;;;6.93;;
73697;SDS011;62004;42.566;23.164;2023-05-15T09:10:48;12.70;;;6.47;;
73697;SDS011;62004;42.566;23.164;2023-05-15T09:13:13;12.48;;;6.60;;
73697;SDS011;62004;42.566;23.164;2023-05-15T09:15:38;12.80;;;5.10;;
73697;SDS011;62004;42.566;23.164;2023-05-15T09:18:04;12.23;;;6.00;;
73697;SDS011;62004;42.566;23.164;2023-05-15T09:20:34;14.73;;;7.00;;
73697;SDS011;62004;42.566;23.164;2023-05-15T09:23:00;15.15;;;6.70;;
73697;SDS011;62004;42.566;23.164;2023-05-15T09:25:35;11.82;;;5.75;;
73697;SDS011;62004;42.566;23.164;2023-05-15T09:28:02;13.43;;;5.97;;
73697;SDS011;62004;42.566;23.164;2023-05-15T09:30:27;8.70;;;5.78;;
73697;SDS011;62004;42.566;23.164;2023-05-15T09:32:55;14.85;;;5.70;;
73697;SDS011;62004;42.566;23.164;2023-05-15T09:35:33;9.93;;;4.50;;
73697;SDS011;62004;42.566;23.164;2023-05-15T09:37:59;9.70;;;5.50;;
73697;SDS011;62004;42.566;23.164;2023-05-15T09:40:27;12.05;;;4.43;;
73697;SDS011;62004;42.566;23.164;2023-05-15T09:42:52;10.45;;;4.80;;
73697;SDS011;62004;42.566;23.164;2023-05-15T09:45:17;11.60;;;6.22;;
73697;SDS011;62004;42.566;23.164;2023-05-15T09:47:43;12.43;;;5.43;;
73697;SDS011;62004;42.566;23.164;2023-05-15T09:50:08;15.68;;;8.85;;
73697;SDS011;62004;42.566;23.164;2023-05-15T09:52:34;14.63;;;9.60;;
73697;SDS011;62004;42.566;23.164;2023-05-15T09:55:00;15.57;;;10.48;;
73697;SDS011;62004;42.566;23.164;2023-05-15T09:57:25;16.93;;;10.77;;
73697;SDS011;62004;42.566;23.164;2023-05-15T09:59:51;18.88;;;11.27;;
73697;SDS011;62004;42.566;23.164;2023-05-15T10:04:54;19.48;;;10.60;;
73697;SDS011;62004;42.566;23.164;2023-05-15T10:07:27;17.27;;;12.15;;
73697;SDS011;62004;42.566;23.164;2023-05-15T10:09:52;16.20;;;9.68;;
73697;SDS011;62004;42.566;23.164;2023-05-15T10:12:17;17.13;;;10.90;;
73697;SDS011;62004;42.566;23.164;2023-05-15T10:14:43;13.00;;;8.57;;
73697;SDS011;62004;42.566;23.164;2023-05-15T10:17:08;16.98;;;9.80;;
73697;SDS011;62004;42.566;23.164;2023-05-15T10:19:34;13.27;;;9.18;;
73697;SDS011;62004;42.566;23.164;2023-05-15T10:22:00;15.23;;;8.90;;
73697;SDS011;62004;42.566;23.164;2023-05-15T10:24:26;16.95;;;8.52;;
73697;SDS011;62004;42.566;23.164;2023-05-15T10:26:52;15.07;;;9.35;;
73697;SDS011;62004;42.566;23.164;2023-05-15T10:29:19;13.00;;;8.25;;
73697;SDS011;62004;42.566;23.164;2023-05-15T10:31:46;13.82;;;8.52;;
73697;SDS011;62004;42.566;23.164;2023-05-15T10:34:12;14.30;;;6.82;;
73697;SDS011;62004;42.566;23.164;2023-05-15T10:36:38;12.07;;;7.97;;
73697;SDS011;62004;42.566;23.164;2023-05-15T10:39:04;16.73;;;9.90;;
73697;SDS011;62004;42.566;23.164;2023-05-15T10:41:36;14.65;;;9.25;;
73697;SDS011;62004;42.566;23.164;2023-05-15T10:44:02;13.32;;;8.82;;
73697;SDS011;62004;42.566;23.164;2023-05-15T10:46:28;13.40;;;8.13;;
73697;SDS011;62004;42.566;23.164;2023-05-15T10:48:54;13.23;;;9.30;;
73697;SDS011;62004;42.566;23.164;2023-05-15T10:51:25;14.90;;;7.25;;
73697;SDS011;62004;42.566;23.164;2023-05-15T10:53:54;12.35;;;6.72;;
73697;SDS011;62004;42.566;23.164;2023-05-15T10:56:23;11.70;;;7.25;;
73697;SDS011;62004;42.566;23.164;2023-05-15T11:03:49;11.10;;;7.22;;
73697;SDS011;62004;42.566;23.164;2023-05-15T11:06:14;10.53;;;7.27;;
73697;SDS011;62004;42.566;23.164;2023-05-15T11:08:40;14.53;;;6.80;;
73697;SDS011;62004;42.566;23.164;2023-05-15T11:11:06;13.13;;;7.10;;
73697;SDS011;62004;42.566;23.164;2023-05-15T11:17:14;12.40;;;7.75;;
73697;SDS011;62004;42.566;23.164;2023-05-15T11:21:46;13.90;;;7.88;;
73697;SDS011;62004;42.566;23.164;2023-05-15T11:24:11;9.90;;;7.13;;
73697;SDS011;62004;42.566;23.164;2023-05-15T11:26:40;15.97;;;7.60;;
73697;SDS011;62004;42.566;23.164;2023-05-15T11:29:16;9.88;;;7.35;;
73697;SDS011;62004;42.566;23.164;2023-05-15T11:31:41;14.35;;;8.68;;
73697;SDS011;62004;42.566;23.164;2023-05-15T11:34:07;11.77;;;7.27;;
73697;SDS011;62004;42.566;23.164;2023-05-15T11:36:32;16.40;;;8.87;;
73697;SDS011;62004;42.566;23.164;2023-05-15T11:38:57;16.35;;;8.40;;
73697;SDS011;62004;42.566;23.164;2023-05-15T11:41:23;13.00;;;7.85;;
73697;SDS011;62004;42.566;23.164;2023-05-15T11:43:55;12.27;;;8.05;;
73697;SDS011;62004;42.566;23.164;2023-05-15T11:46:21;14.15;;;7.53;;
73697;SDS011;62004;42.566;23.164;2023-05-15T11:48:46;10.52;;;7.88;;
73697;SDS011;62004;42.566;23.164;2023-05-15T11:53:37;9.00;;;6.03;;
73697;SDS011;62004;42.566;23.164;2023-05-15T11:56:03;16.30;;;6.68;;
73697;SDS011;62004;42.566;23.164;2023-05-15T11:58:28;9.38;;;6.13;;
73697;SDS011;62004;42.566;23.164;2023-05-15T12:00:53;10.57;;;5.68;;
73697;SDS011;62004;42.566;23.164;2023-05-15T12:03:21;13.77;;;5.78;;
73697;SDS011;62004;42.566;23.164;2023-05-15T12:05:47;15.52;;;5.43;;
73697;SDS011;62004;42.566;23.164;2023-05-15T12:08:13;17.60;;;5.38;;
73697;SDS011;62004;42.566;23.164;2023-05-15T12:10:39;16.33;;;5.85;;
73697;SDS011;62004;42.566;23.164;2023-05-15T12:13:04;15.85;;;5.10;;
73697;SDS011;62004;42.566;23.164;2023-05-15T12:15:30;14.00;;;5.90;;
73697;SDS011;62004;42.566;23.164;2023-05-15T12:17:55;14.10;;;6.73;;
73697;SDS011;62004;42.566;23.164;2023-05-15T12:20:20;13.30;;;9.73;;
73697;SDS011;62004;42.566;23.164;2023-05-15T12:22:45;12.23;;;8.68;;
73697;SDS011;62004;42.566;23.164;2023-05-15T12:25:11;17.77;;;8.87;;
73697;SDS011;62004;42.566;23.164;2023-05-15T12:27:39;11.93;;;7.95;;
73697;SDS011;62004;42.566;23.164;2023-05-15T12:30:05;15.35;;;8.23;;
73697;SDS011;62004;42.566;23.164;2023-05-15T12:32:31;20.13;;;6.15;;
73697;SDS011;62004;42.566;23.164;2023-05-15T12:34:57;18.25;;;8.35;;
73697;SDS011;62004;42.566;23.164;2023-05-15T12:37:22;14.95;;;8.93;;
73697;SDS011;62004;42.566;23.164;2023-05-15T12:39:52;17.50;;;9.65;;
73697;SDS011;62004;42.566;23.164;2023-05-15T12:44:42;18.77;;;8.80;;
73697;SDS011;62004;42.566;23.164;2023-05-15T12:47:08;13.27;;;8.48;;
73697;SDS011;62004;42.566;23.164;2023-05-15T12:49:36;17.30;;;8.55;;
73697;SDS011;62004;42.566;23.164;2023-05-15T12:52:08;15.63;;;9.25;;
73697;SDS011;62004;42.566;23.164;2023-05-15T12:54:37;14.02;;;8.70;;
73697;SDS011;62004;42.566;23.164;2023-05-15T12:57:03;14.63;;;8.93;;
73697;SDS011;62004;42.566;23.164;2023-05-15T12:59:28;13.93;;;8.00;;
73697;SDS011;62004;42.566;23.164;2023-05-15T13:01:53;16.75;;;7.13;;
73697;SDS011;62004;42.566;23.164;2023-05-15T13:04:19;16.98;;;7.18;;
73697;SDS011;62004;42.566;23.164;2023-05-15T13:06:44;10.03;;;5.07;;
73697;SDS011;62004;42.566;23.164;2023-05-15T13:09:10;14.82;;;6.55;;
73697;SDS011;62004;42.566;23.164;2023-05-15T13:11:35;20.05;;;7.35;;
73697;SDS011;62004;42.566;23.164;2023-05-15T13:14:07;16.03;;;7.87;;
73697;SDS011;62004;42.566;23.164;2023-05-15T13:16:32;13.20;;;6.25;;
73697;SDS011;62004;42.566;23.164;2023-05-15T13:19:00;13.52;;;6.65;;
73697;SDS011;62004;42.566;23.164;2023-05-15T13:21:25;16.50;;;5.07;;
73697;SDS011;62004;42.566;23.164;2023-05-15T13:23:51;14.55;;;4.45;;
73697;SDS011;62004;42.566;23.164;2023-05-15T13:26:16;13.68;;;4.43;;
73697;SDS011;62004;42.566;23.164;2023-05-15T13:28:41;13.38;;;3.88;;
73697;SDS011;62004;42.566;23.164;2023-05-15T13:31:07;17.85;;;4.00;;
73697;SDS011;62004;42.566;23.164;2023-05-15T13:33:32;14.50;;;3.83;;
73697;SDS011;62004;42.566;23.164;2023-05-15T13:35:59;13.50;;;4.20;;
73697;SDS011;62004;42.566;23.164;2023-05-15T13:38:24;9.45;;;3.80;;
73697;SDS011;62004;42.566;23.164;2023-05-15T13:40:50;12.53;;;3.67;;
73697;SDS011;62004;42.566;23.164;2023-05-15T13:43:15;15.47;;;4.30;;
73697;SDS011;62004;42.566;23.164;2023-05-15T13:45:40;15.40;;;4.07;;
73697;SDS011;62004;42.566;23.164;2023-05-15T13:48:05;11.73;;;3.60;;
73697;SDS011;62004;42.566;23.164;2023-05-15T13:50:31;12.23;;;3.53;;
73697;SDS011;62004;42.566;23.164;2023-05-15T13:52:56;13.37;;;4.53;;
73697;SDS011;62004;42.566;23.164;2023-05-15T13:55:21;17.03;;;4.03;;
73697;SDS011;62004;42.566;23.164;2023-05-15T13:57:46;18.00;;;4.55;;
73697;SDS011;62004;42.566;23.164;2023-05-15T14:00:12;13.63;;;4.17;;
73697;SDS011;62004;42.566;23.164;2023-05-15T14:02:38;12.30;;;4.60;;
73697;SDS011;62004;42.566;23.164;2023-05-15T14:05:03;11.90;;;4.15;;
73697;SDS011;62004;42.566;23.164;2023-05-15T14:07:30;9.75;;;4.78;;
73697;SDS011;62004;42.566;23.164;2023-05-15T14:09:56;7.93;;;4.45;;
73697;SDS011;62004;42.566;23.164;2023-05-15T14:12:21;12.25;;;3.05;;
73697;SDS011;62004;42.566;23.164;2023-05-15T14:14:47;9.25;;;4.18;;
73697;SDS011;62004;42.566;23.164;2023-05-15T14:17:12;13.13;;;3.97;;
73697;SDS011;62004;42.566;23.164;2023-05-15T14:19:38;17.55;;;3.78;;
73697;SDS011;62004;42.566;23.164;2023-05-15T14:22:04;11.27;;;4.75;;
73697;SDS011;62004;42.566;23.164;2023-05-15T14:24:29;12.43;;;4.50;;
73697;SDS011;62004;42.566;23.164;2023-05-15T14:26:54;13.20;;;4.13;;
73697;SDS011;62004;42.566;23.164;2023-05-15T14:29:19;20.63;;;4.37;;
73697;SDS011;62004;42.566;23.164;2023-05-15T14:31:45;12.57;;;7.43;;
73697;SDS011;62004;42.566;23.164;2023-05-15T14:34:10;38.10;;;23.27;;
73697;SDS011;62004;42.566;23.164;2023-05-15T14:36:35;16.60;;;7.65;;
73697;SDS011;62004;42.566;23.164;2023-05-15T14:39:00;19.70;;;9.30;;
73697;SDS011;62004;42.566;23.164;2023-05-15T14:41:26;20.73;;;9.88;;
73697;SDS011;62004;42.566;23.164;2023-05-15T14:43:52;23.77;;;10.70;;
73697;SDS011;62004;42.566;23.164;2023-05-15T14:46:17;22.57;;;10.27;;